Shipshaw, Canada
Current Conditions -  °F | °C
As of 7:00 AM on Friday 24 Oct 2014 (Local Time) from CYBG Reporting Station
Scattered Clouds Scattered Clouds  
Wind Chill: 26°   Ceiling: Unl
Heat Index: 32°   Visibility: 25mi
Dew Point: 28°   Wind: 6mph
Humidity: 87%   Direction: 270°W
Pressure: 29.99"   Gusts: NA
Location:  48.45°N, 71.22°W
Report Text: CYBG 241100Z 27005KT 25SM SCT170 M00/M02 A2999 RMK AC3 SLP163
Loading
Personal Weather Stations






























Interactive Weather Map
Tropical Storm Tracking
New forecast layout! Learn more

10-Day Weather Forecast

Advertisements
Track Severe Weather on mobile